Armbrust, PA

9:13 AM EST on January 28, 2015 (GMT -0500)
Midway St. Clair | Change Station
CLOSE
Current Station
Personal Weather Station
Location: Greensburg, PA
Elevation: 1135 ft
Nearby Weather Stations

Elev 1135 ft 40.27 °N, 79.56 °W | Updated 3 seconds ago

Overcast
Overcast
15.3 °F
Feels Like 15 °F
N
0.0
Wind Variable Wind from South
Gusts 0.0 mph

Today
High -- | Low -- °F
--% Chance of Precip.
Yesterday
High -- | Low -- °F
Precip. -- in
7:30 AM 5:31 PM
Waxing Gibbous, 65% visible
Pressure 30.32 in
Visibility 6.0 miles
Clouds Overcast 1300 ft
Windchill 15 °F
Dew Point 12 °F
Humidity 88%
Rainfall 0.00 in
Snow Depth Not available.
UV 0 out of 12
Pollen .10 out of 12
Air Quality Not available.
Flu Activity Not available.
METAR KLBE 281350Z 26008KT 6SM -SN OVC013 M10/M12 A3032

More Conditions Fewer Conditions

Pressure 30.32 in
Visibility 6.0 miles
Clouds Overcast 1300 ft
Windchill 15 °F
Dew Point 12 °F
Humidity 88%
Rainfall 0.00 in
Snow Depth Not available.
UV 0 out of 12
Pollen .10 out of 12
Air Quality Not available.
Flu Activity Not available.
METAR KLBE 281350Z 26008KT 6SM -SN OVC013 M10/M12 A3032

More Conditions Fewer Conditions

10-Day Weather Forecast

Almanac

Astronomy

Jan. 28, 2015 Rise Set
Actual Time
Civil Twilight
Nautical Twilight
Astronomical Twilight
Moon
Length of Visible Light
Length of Day
Tomorrow will be .
, % of the Moon is Illuminated

Today's Extremes

State Highs State Lows

Community

WunderPhotos

Upload Photos

1,791,148 photos uploaded!

WunderBlogs® & News

Nearby

Air Quality

  Air Quality AQ Index Pollutant
Not available.

Snow Depth

Station Depth Elevation

Earthquake Activity

City Distance Mag. Time & Date
Minimum magnitude displayed is 2.5.

Coastal Water Temperatures

Place Temperature

Nearby Weather Stations